PAAQ METAR and TAF weather

Enter ICAO airport designator
Station Type Date Time Source
PAAQ METAR 2022/07/01 00:53 UTC NOAA

PAAQ 010053Z 24008KT 10SM FU FEW065 24/11 A3012 RMK AO2 SLP198 T02390111


Station Type Date Time Source
PAAQ Decoded METAR 2022/07/01 00:53 UTC NOAA

PALMER MUNICIPAL AIRPORT, AK, United States (PAAQ) 61-36N 149-06W
Jun 30, 2022 - 08:53 PM EDT / 2022.07.01 0053 UTC
Wind: from the WSW (240 degrees) at 9 MPH (8 KT):0
Visibility: 10 mile(s):0
Sky conditions: mostly clear
Weather: smoke
Temperature: 75.0 F (23.9 C)
Dew Point: 52.0 F (11.1 C)
Relative Humidity: 44%
Pressure (altimeter): 30.12 in. Hg (1019 hPa)
ob: PAAQ 010053Z 24008KT 10SM FU FEW065 24/11 A3012 RMK AO2 SLP198 T02390111
cycle: 1

Station Type Date Time Source
PAAQ TAF 2022/06/30 18:27 UTC NOAA

TAF PAAQ 301724Z 3018/0118 20007KT 6SM FU BKN070

Example: see airport list